Airport Name : Campia Turzii

Other Name : Campia Turzii

ICAO : LRCT

IATA :

FAA :

Latitude : 46.502281

Longitude : 23.885914

Country : Romania

Local Date and Time : 1/21/2018 8:29:00 PM

 

TAF (Terminal Aerodrome Forecast)

 

METAR (METeorological Aerodrome Report)

LRCT 211800Z 30005KT 9999 OVC070 00/M02 Q1005 BLU BLU

LRCT 211700Z 29008KT 9999 SCT060 OVC075 M00/M01 Q1005 BLU BLU

LRCT 211600Z 28005KT 9999 SCT060 OVC075 M00/M01 Q1005 BLU BLU

LRCT 211500Z 30003KT 9999 SCT060 OVC090 M00/M01 Q1005 BLU BLU